| time (UTC) | temp F | wind direction | speed knots | gust knots | rain 1hr in | rain 24hr in | rain mn in | humidity % | barometer mb |
| 20260507093603 | 47 | 149 | 0.0 | 1.7 | 0.07 | 0.61 | 0.34 | 99 | 1008.5 |
| 20260507092703 | 47 | 147 | 0.0 | 0.9 | 0.07 | 0.60 | 0.33 | 99 | 1008.1 |
| 20260507091803 | 47 | 182 | 0.0 | 2.6 | 0.08 | 0.60 | 0.33 | 99 | 1008.0 |
| 20260507090903 | 47 | 156 | 0.0 | 2.6 | 0.08 | 0.59 | 0.32 | 99 | 1008.1 |
| 20260507090005 | 47 | 159 | 0.0 | 1.7 | 0.08 | 0.58 | 0.31 | 99 | 1007.8 |
| 20260507085611 | 47 | 173 | 0.0 | 0.9 | 0.07 | 0.57 | 0.30 | 99 | 1007.8 |
| 20260507084504 | 47 | 161 | 0.0 | 0.9 | 0.07 | 0.56 | 0.28 | 99 | 1007.7 |
| 20260507083810 | 47 | 171 | 0.0 | 0.9 | 0.07 | 0.54 | 0.27 | 99 | 1007.8 |
| 20260507082703 | 47 | 198 | 0.0 | 1.7 | 0.07 | 0.53 | 0.26 | 99 | 1007.7 |
| 20260507081804 | 47 | 136 | 0.0 | 0.9 | 0.06 | 0.52 | 0.25 | 99 | 1007.4 |
| 20260507081111 | 47 | 179 | 0.0 | 1.7 | 0.07 | 0.52 | 0.25 | 99 | 1007.4 |
| 20260507080212 | 47 | 209 | 0.0 | 3.5 | 0.06 | 0.51 | 0.24 | 99 | 1007.2 |
| 20260507075404 | 47 | 195 | 0.9 | 3.5 | 0.05 | 0.48 | 0.22 | 99 | 1007.1 |
| 20260507074503 | 47 | 171 | 0.0 | 3.5 | 0.06 | 0.48 | 0.21 | 99 | 1007.1 |
| 20260507073603 | 47 | 153 | 0.0 | 0.9 | 0.06 | 0.47 | 0.20 | 99 | 1007.0 |
| 20260507072703 | 47 | 151 | 0.0 | 0.9 | 0.07 | 0.46 | 0.19 | 99 | 1006.9 |
| 20260507071803 | 48 | 131 | 0.0 | 0.9 | 0.08 | 0.46 | 0.19 | 99 | 1006.9 |
| 20260507070904 | 47 | 149 | 0.0 | 0.9 | 0.08 | 0.45 | 0.18 | 99 | 1006.7 |
| 20260507070211 | 47 | 149 | 0.0 | 0.9 | 0.08 | 0.45 | 0.18 | 99 | 1006.6 |
| 20260507064503 | 47 | 164 | 0.0 | 0.9 | 0.07 | 0.43 | 0.15 | 99 | 1006.5 |
| 20260507063603 | 46 | 173 | 0.9 | 2.6 | 0.07 | 0.41 | 0.14 | 99 | 1006.4 |
| 20260507062911 | 46 | 174 | 0.9 | 2.6 | 0.07 | 0.40 | 0.13 | 99 | 1006.3 |
| 20260507061803 | 46 | 186 | 1.7 | 7.8 | 0.06 | 0.38 | 0.11 | 99 | 1006.4 |
| 20260507060903 | 46 | 181 | 2.6 | 7.0 | 0.05 | 0.37 | 0.09 | 99 | 1006.3 |
| 20260507060004 | 46 | 184 | 1.7 | 3.5 | 0.05 | 0.37 | 0.09 | 99 | 1006.3 |
| 20260507055611 | 46 | 184 | 1.7 | 6.1 | 0.04 | 0.35 | 0.08 | 99 | 1006.1 |
| 20260507054503 | 46 | 182 | 0.9 | 2.6 | 0.04 | 0.35 | 0.08 | 99 | 1006.1 |
| 20260507053603 | 46 | 184 | 0.9 | 5.2 | 0.02 | 0.34 | 0.07 | 99 | 1006.2 |
| 20260507052703 | 46 | 173 | 0.0 | 0.9 | 0.01 | 0.33 | 0.06 | 99 | 1005.8 |
| 20260507051803 | 46 | 0 | 0.0 | 0.0 | 0.00 | 0.32 | 0.05 | 99 | 1005.7 |
| 20260507050903 | 46 | 157 | 0.0 | 0.9 | 0.01 | 0.32 | 0.05 | 99 | 1005.6 |
| 20260507050005 | 46 | 167 | 0.0 | 1.7 | 0.01 | 0.32 | 0.05 | 99 | 1005.6 |
| 20260507045611 | 46 | 178 | 0.0 | 1.7 | 0.01 | 0.32 | 0.05 | 99 | 1005.5 |
| 20260507044504 | 46 | 172 | 0.0 | 1.7 | 0.01 | 0.32 | 0.05 | 99 | 1005.6 |
| 20260507043810 | 47 | 145 | 0.0 | 0.9 | 0.01 | 0.32 | 0.05 | 99 | 1005.4 |
| 20260507042703 | 47 | 229 | 0.0 | 5.2 | 0.01 | 0.32 | 0.05 | 99 | 1005.3 |
| 20260507041803 | 47 | 233 | 0.0 | 5.2 | 0.01 | 0.32 | 0.05 | 99 | 1005.1 |
| 20260507040903 | 47 | 201 | 0.9 | 2.6 | 0.00 | 0.31 | 0.04 | 99 | 1005.1 |
| 20260507040015 | 47 | 178 | 0.0 | 3.5 | 0.00 | 0.31 | 0.04 | 99 | 1005.0 |
| 20260507035610 | 47 | 180 | 0.9 | 3.5 | 0.00 | 0.31 | 0.04 | 99 | 1005.0 |
| 20260507034503 | 47 | 198 | 0.0 | 2.6 | 0.00 | 0.31 | 0.04 | 99 | 1004.6 |
| 20260507033603 | 47 | 135 | 0.0 | 1.7 | 0.00 | 0.31 | 0.04 | 99 | 1004.7 |
| 20260507032703 | 47 | 205 | 0.9 | 5.2 | 0.00 | 0.31 | 0.04 | 99 | 1004.5 |
| 20260507031803 | 47 | 186 | 0.9 | 5.2 | 0.00 | 0.31 | 0.04 | 99 | 1004.5 |
| 20260507030904 | 47 | 227 | 0.0 | 1.7 | 0.00 | 0.31 | 0.04 | 99 | 1004.6 |
| 20260507030004 | 48 | 188 | 0.0 | 1.7 | 0.00 | 0.31 | 0.04 | 99 | 1004.4 |
| 20260507025403 | 48 | 198 | 0.9 | 3.5 | 0.00 | 0.31 | 0.04 | 99 | 1004.4 |
| 20260507024505 | 48 | 198 | 0.0 | 2.6 | 0.01 | 0.31 | 0.04 | 99 | 1004.3 |
| 20260507023603 | 48 | 160 | 0.0 | 2.6 | 0.02 | 0.31 | 0.04 | 99 | 1004.4 |
| 20260507022705 | 48 | 168 | 0.0 | 0.9 | 0.02 | 0.31 | 0.04 | 99 | 1004.3 |
| 20260507021803 | 49 | 192 | 0.0 | 3.5 | 0.02 | 0.31 | 0.04 | 99 | 1004.0 |
| 20260507020903 | 49 | 206 | 0.9 | 3.5 | 0.04 | 0.31 | 0.04 | 99 | 1004.4 |
| 20260507020004 | 49 | 216 | 0.0 | 1.7 | 0.04 | 0.31 | 0.04 | 99 | 1004.0 |
| 20260507015403 | 49 | 0 | 0.0 | 0.0 | 0.04 | 0.31 | 0.04 | 99 | 1003.9 |
| 20260507014503 | 49 | 195 | 0.0 | 1.7 | 0.02 | 0.30 | 0.02 | 99 | 1004.0 |
| 20260507013603 | 49 | 167 | 0.0 | 1.7 | 0.01 | 0.28 | 0.01 | 99 | 1003.9 |
| 20260507012703 | 49 | 176 | 0.0 | 0.9 | 0.01 | 0.28 | 0.01 | 99 | 1003.8 |
| 20260507011803 | 49 | 153 | 0.0 | 0.9 | 0.01 | 0.28 | 0.01 | 99 | 1003.9 |
| 20260507010903 | 49 | 214 | 0.9 | 5.2 | 0.00 | 0.27 | 0.00 | 99 | 1003.9 |
| 20260507010212 | 50 | 161 | 0.0 | 1.7 | 0.00 | 0.27 | 0.00 | 99 | 1003.9 |
| 20260507005407 | 50 | 149 | 0.0 | 1.7 | 0.00 | 0.27 | 0.00 | 99 | 1003.9 |
| 20260507004712 | 50 | 0 | 0.0 | 0.0 | 0.00 | 0.27 | 0.00 | 99 | 1003.7 |
| 20260507003603 | 50 | 159 | 0.0 | 1.7 | 0.00 | 0.27 | 0.00 | 99 | 1003.7 |
| 20260507002703 | 51 | 162 | 0.0 | 0.9 | 0.00 | 0.27 | 0.00 | 99 | 1003.7 |
| 20260507001803 | 51 | 164 | 0.0 | 0.9 | 0.00 | 0.27 | 0.00 | 99 | 1003.6 |
| 20260507000903 | 51 | 162 | 0.0 | 0.9 | 0.00 | 0.27 | 0.00 | 99 | 1003.9 |
| 20260507000004 | 51 | 159 | 0.0 | 1.7 | 0.00 | 0.27 | 0.00 | 99 | 1003.7 |
| 20260506235403 | 51 | 169 | 0.0 | 0.9 | 0.00 | 0.27 | 0.00 | 99 | 1003.6 |
| 20260506234503 | 51 | 0 | 0.0 | 0.0 | 0.00 | 0.27 | 0.00 | 99 | 1003.6 |
| 20260506233603 | 50 | 0 | 0.0 | 0.0 | 0.00 | 0.27 | 0.00 | 99 | 1003.6 |
| 20260506232703 | 50 | 0 | 0.0 | 0.0 | 0.00 | 0.27 | 0.00 | 99 | 1003.5 |
| 20260506231803 | 50 | 0 | 0.0 | 0.0 | 0.00 | 0.27 | 0.00 | 99 | 1003.7 |
| 20260506230903 | 51 | 171 | 0.0 | 0.9 | 0.00 | 0.28 | 0.00 | 99 | 1003.5 |
| 20260506230004 | 51 | 171 | 0.0 | 1.7 | 0.00 | 0.28 | 0.00 | 99 | 1003.5 |
| 20260506225403 | 51 | 164 | 0.0 | 1.7 | 0.00 | 0.30 | 0.00 | 99 | 1003.2 |
| 20260506224518 | 51 | 0 | 0.0 | 0.0 | 0.00 | 0.32 | 0.00 | 99 | 1003.3 |
| 20260506223811 | 51 | 0 | 0.0 | 0.0 | 0.00 | 0.33 | 0.00 | 99 | 1003.5 |
| 20260506222718 | 51 | 0 | 0.0 | 0.0 | 0.00 | 0.34 | 0.00 | 99 | 1003.3 |
| 20260506221803 | 51 | 0 | 0.0 | 0.0 | 0.00 | 0.37 | 0.00 | 99 | 1003.6 |
| 20260506220904 | 51 | 0 | 0.0 | 0.0 | 0.00 | 0.39 | 0.00 | 99 | 1003.2 |
| 20260506220008 | 51 | 0 | 0.0 | 0.0 | 0.00 | 0.41 | 0.00 | 99 | 1003.3 |
| 20260506215403 | 51 | 0 | 0.0 | 0.0 | 0.00 | 0.43 | 0.41 | 99 | 1003.3 |
| 20260506214711 | 51 | 0 | 0.0 | 0.0 | 0.00 | 0.45 | 0.41 | 99 | 1003.3 |
| 20260506213603 | 51 | 0 | 0.0 | 0.0 | 0.00 | 0.46 | 0.41 | 99 | 1003.6 |
| 20260506212703 | 51 | 0 | 0.0 | 0.0 | 0.00 | 0.50 | 0.41 | 99 | 1003.5 |
| 20260506211803 | 51 | 0 | 0.0 | 0.0 | 0.00 | 0.54 | 0.41 | 99 | 1003.3 |
| 20260506210903 | 51 | 174 | 0.0 | 0.9 | 0.00 | 0.58 | 0.41 | 99 | 1003.3 |
| 20260506210212 | 51 | 179 | 0.0 | 0.9 | 0.00 | 0.64 | 0.41 | 99 | 1003.3 |
| 20260506205403 | 51 | 0 | 0.0 | 0.0 | 0.00 | 0.74 | 0.41 | 99 | 1003.3 |
| 20260506204503 | 51 | 203 | 0.9 | 2.6 | 0.00 | 0.85 | 0.41 | 99 | 1003.5 |
| 20260506203605 | 51 | 188 | 0.0 | 1.7 | 0.00 | 0.96 | 0.41 | 99 | 1003.2 |
| 20260506202703 | 52 | 214 | 0.9 | 3.5 | 0.00 | 1.10 | 0.41 | 99 | 1003.2 |
| 20260506201803 | 52 | 173 | 0.0 | 2.6 | 0.00 | 1.28 | 0.41 | 99 | 1003.2 |
| 20260506200903 | 52 | 179 | 0.9 | 2.6 | 0.00 | 1.70 | 0.41 | 99 | 1003.0 |
| 20260506200005 | 52 | 178 | 0.9 | 2.6 | 0.00 | 2.03 | 0.41 | 99 | 1002.9 |
| 20260506195611 | 52 | 176 | 0.0 | 1.7 | 0.00 | 2.11 | 0.41 | 99 | 1002.9 |
| 20260506194503 | 53 | 173 | 0.0 | 0.9 | 0.00 | 2.26 | 0.41 | 99 | 1002.9 |
| 20260506193603 | 52 | 177 | 0.0 | 1.7 | 0.00 | 2.33 | 0.41 | 99 | 1002.7 |
| 20260506192703 | 52 | 176 | 0.9 | 3.5 | 0.00 | 2.34 | 0.41 | 99 | 1002.6 |
| 20260506191803 | 52 | 184 | 0.9 | 2.6 | 0.00 | 2.36 | 0.41 | 99 | 1002.6 |
| 20260506190903 | 51 | 209 | 0.9 | 3.5 | 0.00 | 2.39 | 0.41 | 99 | 1002.5 |
| 20260506190005 | 51 | 194 | 1.7 | 3.5 | 0.00 | 2.41 | 0.41 | 99 | 1002.2 |
| 20260506185611 | 51 | 197 | 2.6 | 3.5 | 0.00 | 2.42 | 0.41 | 99 | 1001.9 |
| 20260506184504 | 52 | 184 | 0.9 | 2.6 | 0.00 | 2.43 | 0.41 | 99 | 1002.0 |
| 20260506183604 | 52 | 174 | 0.0 | 0.9 | 0.00 | 2.44 | 0.41 | 99 | 1001.7 |
| 20260506182703 | 52 | 165 | 0.0 | 0.9 | 0.00 | 2.46 | 0.41 | 99 | 1001.4 |
| 20260506181804 | 52 | 174 | 0.0 | 1.7 | 0.00 | 2.46 | 0.41 | 99 | 1001.2 |
| 20260506180903 | 52 | 185 | 0.9 | 2.6 | 0.01 | 2.47 | 0.41 | 99 | 1001.0 |
| 20260506180005 | 52 | 174 | 0.0 | 3.5 | 0.02 | 2.47 | 0.41 | 99 | 1001.2 |
| 20260506175405 | 52 | 155 | 0.9 | 2.6 | 0.04 | 2.47 | 0.41 | 99 | 1001.2 |
| 20260506174503 | 52 | 165 | 0.0 | 2.6 | 0.05 | 2.47 | 0.41 | 99 | 1001.0 |
| 20260506173618 | 53 | 168 | 0.0 | 1.7 | 0.07 | 2.47 | 0.41 | 99 | 1000.9 |
| 20260506172703 | 52 | 185 | 0.9 | 5.2 | 0.07 | 2.47 | 0.41 | 99 | 1001.2 |
| 20260506171803 | 52 | 180 | 0.9 | 3.5 | 0.07 | 2.47 | 0.41 | 99 | 1001.2 |
| 20260506170903 | 52 | 195 | 1.7 | 5.2 | 0.06 | 2.46 | 0.40 | 99 | 1001.5 |
| 20260506170005 | 52 | 198 | 2.6 | 8.7 | 0.05 | 2.44 | 0.39 | 98 | 1001.6 |
| 20260506165403 | 52 | 194 | 2.6 | 7.0 | 0.04 | 2.43 | 0.38 | 98 | 1001.6 |
| 20260506164503 | 53 | 194 | 2.6 | 6.1 | 0.02 | 2.42 | 0.37 | 97 | 1001.5 |
| 20260506163811 | 54 | 197 | 1.7 | 6.1 | 0.01 | 2.41 | 0.37 | 96 | 1001.6 |
| 20260506162910 | 54 | 208 | 2.6 | 11.3 | 0.04 | 2.40 | 0.34 | 96 | 1001.3 |
| 20260506162011 | 56 | 192 | 1.7 | 7.0 | 0.09 | 2.40 | 0.34 | 98 | 1001.4 |
| 20260506160903 | 55 | 189 | 1.7 | 6.1 | 0.19 | 2.40 | 0.34 | 99 | 1001.2 |
| 20260506160005 | 55 | 165 | 0.9 | 2.6 | 0.20 | 2.40 | 0.34 | 99 | 1001.1 |
| 20260506155403 | 55 | 166 | 0.9 | 2.6 | 0.20 | 2.40 | 0.34 | 99 | 1000.9 |
| 20260506154504 | 54 | 176 | 1.7 | 2.6 | 0.20 | 2.40 | 0.34 | 98 | 1001.0 |
| 20260506153603 | 55 | 190 | 1.7 | 5.2 | 0.20 | 2.40 | 0.34 | 96 | 1001.1 |
| 20260506152704 | 55 | 201 | 3.5 | 7.8 | 0.15 | 2.35 | 0.30 | 95 | 1001.1 |
| 20260506151803 | 58 | 188 | 2.6 | 7.8 | 0.09 | 2.29 | 0.24 | 91 | 1001.4 |
| 20260506150903 | 64 | 191 | 1.7 | 7.8 | 0.01 | 2.21 | 0.15 | 77 | 1001.0 |
| 20260506150005 | 65 | 188 | 0.9 | 3.5 | 0.00 | 2.20 | 0.14 | 64 | 1000.7 |
| 20260506145404 | 66 | 181 | 1.7 | 6.1 | 0.00 | 2.20 | 0.14 | 61 | 1000.7 |
| 20260506144503 | 66 | 201 | 1.7 | 7.8 | 0.00 | 2.20 | 0.14 | 60 | 1001.0 |
| 20260506143603 | 65 | 244 | 1.7 | 5.2 | 0.00 | 2.20 | 0.14 | 63 | 1000.9 |
| 20260506142718 | 64 | 249 | 1.7 | 3.5 | 0.00 | 2.20 | 0.14 | 63 | 1001.0 |
| 20260506141803 | 65 | 194 | 1.7 | 5.2 | 0.00 | 2.20 | 0.14 | 66 | 1001.0 |
| 20260506140903 | 65 | 208 | 1.7 | 3.5 | 0.00 | 2.20 | 0.14 | 63 | 1001.1 |
| 20260506140004 | 63 | 212 | 0.9 | 3.5 | 0.00 | 2.20 | 0.14 | 66 | 1001.1 |
| 20260506135404 | 63 | 205 | 1.7 | 6.1 | 0.00 | 2.20 | 0.14 | 68 | 1001.1 |
| 20260506134503 | 65 | 178 | 1.7 | 7.0 | 0.00 | 2.20 | 0.14 | 65 | 1001.2 |
| 20260506133603 | 64 | 176 | 1.7 | 7.0 | 0.00 | 2.20 | 0.14 | 66 | 1001.2 |
| 20260506132703 | 66 | 164 | 1.7 | 7.8 | 0.00 | 2.20 | 0.14 | 62 | 1001.3 |
| 20260506132010 | 64 | 193 | 2.6 | 8.7 | 0.00 | 2.20 | 0.14 | 65 | 1001.1 |
| 20260506130903 | 63 | 189 | 3.5 | 7.8 | 0.00 | 2.20 | 0.14 | 66 | 1001.5 |
| 20260506130005 | 67 | 187 | 2.6 | 7.8 | 0.00 | 2.20 | 0.14 | 60 | 1001.3 |
| 20260506125403 | 66 | 193 | 2.6 | 9.6 | 0.00 | 2.20 | 0.14 | 59 | 1001.4 |
| 20260506124503 | 66 | 190 | 3.5 | 8.7 | 0.00 | 2.20 | 0.14 | 61 | 1001.3 |
| 20260506123603 | 65 | 190 | 3.5 | 9.6 | 0.00 | 2.20 | 0.14 | 60 | 1001.2 |
| 20260506122703 | 64 | 184 | 4.3 | 12.2 | 0.00 | 2.20 | 0.14 | 63 | 1001.4 |
| 20260506121803 | 65 | 185 | 3.5 | 8.7 | 0.00 | 2.20 | 0.14 | 64 | 1001.1 |
| 20260506120903 | 64 | 161 | 2.6 | 6.1 | 0.00 | 2.20 | 0.14 | 66 | 1001.2 |
| 20260506120005 | 63 | 177 | 3.5 | 12.2 | 0.00 | 2.20 | 0.14 | 68 | 1001.4 |
| 20260506115403 | 63 | 173 | 3.5 | 12.2 | 0.00 | 2.20 | 0.14 | 69 | 1001.5 |
| 20260506114714 | 63 | 192 | 3.5 | 7.8 | 0.00 | 2.20 | 0.14 | 69 | 1001.4 |
| 20260506113603 | 61 | 179 | 3.5 | 7.8 | 0.00 | 2.20 | 0.14 | 71 | 1001.2 |
| 20260506112703 | 64 | 185 | 2.6 | 6.1 | 0.00 | 2.20 | 0.14 | 67 | 1001.4 |
| 20260506111808 | 64 | 185 | 1.7 | 7.0 | 0.00 | 2.20 | 0.14 | 66 | 1001.3 |
| 20260506110904 | 61 | 203 | 2.6 | 7.0 | 0.00 | 2.20 | 0.14 | 71 | 1001.5 |
| 20260506110006 | 61 | 198 | 1.7 | 6.1 | 0.00 | 2.20 | 0.14 | 75 | 1001.4 |
| 20260506105403 | 63 | 177 | 2.6 | 7.0 | 0.00 | 2.20 | 0.14 | 71 | 1001.6 |
| 20260506104504 | 60 | 198 | 1.7 | 7.0 | 0.00 | 2.20 | 0.14 | 73 | 1001.5 |
| 20260506103618 | 61 | 185 | 2.6 | 7.0 | 0.00 | 2.20 | 0.14 | 71 | 1001.7 |
| 20260506102703 | 59 | 177 | 3.5 | 9.6 | 0.00 | 2.20 | 0.14 | 74 | 1001.8 |
| 20260506101803 | 60 | 190 | 3.5 | 7.8 | 0.00 | 2.20 | 0.14 | 76 | 1001.9 |
| 20260506100904 | 59 | 197 | 3.5 | 7.0 | 0.00 | 2.20 | 0.14 | 76 | 1001.7 |
| 20260506100005 | 58 | 190 | 3.5 | 8.7 | 0.00 | 2.20 | 0.14 | 80 | 1001.8 |
| 20260506095408 | 57 | 191 | 3.5 | 7.8 | 0.00 | 2.20 | 0.14 | 81 | 1001.5 |
| 20260506094503 | 58 | 184 | 3.5 | 13.0 | 0.00 | 2.20 | 0.14 | 79 | 1001.7 |